EZS1347 LSGG-LFPO
Flight info
| Callsign | EZS1347 |
|---|---|
| Flight time | 1h 6m |
| Altitude | 24000 |
| Route | DIPIR T37 IBABA DCT TUTAX |
| Aircraft | A320/M-SDE2E3FGHIJ1RWXYZ/LB1 |
Departure
| Time | 2026-05-04 09:07 |
|---|---|
| Airport | Geneva International Airport (LSGG) |
Arrival
| Time | 2026-05-04 10:14 |
|---|---|
| Airport | Paris-Orly Airport (LFPO) |
| Time | Latitude | Longitude | Altitude | Speed | Heading |
|---|---|---|---|---|---|
| 2026-05-04 08:28 | 46.23450 | 6.10851 | 1393 ft | 0 kts | 135° |
| 2026-05-04 08:57 | 46.23417 | 6.10932 | 1393 ft | 2 kts | 56° |
| 2026-05-04 09:01 | 46.24466 | 6.12196 | 1372 ft | 8 kts | 44° |
| 2026-05-04 09:01 | 46.24499 | 6.12244 | 1372 ft | 6 kts | 45° |
| 2026-05-04 09:01 | 46.24522 | 6.12278 | 1372 ft | 4 kts | 45° |
| 2026-05-04 09:01 | 46.24563 | 6.12337 | 1372 ft | 12 kts | 45° |
| 2026-05-04 09:02 | 46.24625 | 6.12428 | 1368 ft | 14 kts | 45° |
| 2026-05-04 09:02 | 46.24695 | 6.12530 | 1363 ft | 14 kts | 46° |
| 2026-05-04 09:02 | 46.24765 | 6.12634 | 1362 ft | 14 kts | 41° |
| 2026-05-04 09:02 | 46.24843 | 6.12687 | 1363 ft | 11 kts | 17° |
| 2026-05-04 09:03 | 46.24899 | 6.12712 | 1366 ft | 6 kts | 17° |
| 2026-05-04 09:03 | 46.24917 | 6.12720 | 1366 ft | 0 kts | 17° |
| 2026-05-04 09:05 | 46.24925 | 6.12723 | 1365 ft | 7 kts | 17° |
| 2026-05-04 09:05 | 46.24994 | 6.12696 | 1371 ft | 8 kts | 311° |
| 2026-05-04 09:05 | 46.24992 | 6.12640 | 1370 ft | 4 kts | 240° |
| 2026-05-04 09:05 | 46.24969 | 6.12604 | 1372 ft | 10 kts | 226° |
| 2026-05-04 09:06 | 46.24810 | 6.12372 | 1372 ft | 66 kts | 226° |
| 2026-05-04 09:07 | 46.19029 | 6.03918 | 3799 ft | 243 kts | 225° |
| 2026-05-04 09:08 | 46.17799 | 6.02104 | 4390 ft | 260 kts | 225° |
| 2026-05-04 09:08 | 46.16518 | 6.00224 | 5266 ft | 265 kts | 225° |
| 2026-05-04 09:08 | 46.15222 | 5.98313 | 6223 ft | 268 kts | 225° |
| 2026-05-04 09:08 | 46.13937 | 5.96365 | 7210 ft | 268 kts | 227° |
| 2026-05-04 09:09 | 46.13011 | 5.94030 | 8211 ft | 274 kts | 249° |
| 2026-05-04 09:09 | 46.12809 | 5.91270 | 9123 ft | 285 kts | 272° |
| 2026-05-04 09:09 | 46.13425 | 5.88511 | 9997 ft | 299 kts | 296° |
| 2026-05-04 09:09 | 46.14847 | 5.86267 | 10761 ft | 312 kts | 323° |
| 2026-05-04 09:10 | 46.16876 | 5.85064 | 11507 ft | 325 kts | 346° |
| 2026-05-04 09:10 | 46.19185 | 5.84488 | 11776 ft | 348 kts | 349° |
| 2026-05-04 09:10 | 46.21626 | 5.83996 | 12406 ft | 358 kts | 351° |
| 2026-05-04 09:10 | 46.24110 | 5.83543 | 13246 ft | 361 kts | 351° |
| 2026-05-04 09:11 | 46.26615 | 5.83093 | 14076 ft | 364 kts | 350° |
| 2026-05-04 09:11 | 46.29137 | 5.82626 | 14776 ft | 367 kts | 350° |
| 2026-05-04 09:11 | 46.31682 | 5.82138 | 15418 ft | 371 kts | 349° |
| 2026-05-04 09:11 | 46.34250 | 5.81627 | 16057 ft | 375 kts | 349° |
| 2026-05-04 09:12 | 46.36847 | 5.81101 | 16688 ft | 379 kts | 349° |
| 2026-05-04 09:12 | 46.38582 | 5.80745 | 17126 ft | 381 kts | 348° |
| 2026-05-04 09:14 | 46.55456 | 5.68637 | 21062 ft | 398 kts | 327° |
| 2026-05-04 09:14 | 46.57889 | 5.66668 | 21584 ft | 401 kts | 327° |
| 2026-05-04 09:14 | 46.60339 | 5.64679 | 22094 ft | 405 kts | 326° |
| 2026-05-04 09:14 | 46.62812 | 5.62662 | 22561 ft | 410 kts | 326° |
| 2026-05-04 09:15 | 46.65305 | 5.60621 | 23048 ft | 413 kts | 326° |
| 2026-05-04 09:15 | 46.67822 | 5.58561 | 23555 ft | 417 kts | 326° |
| 2026-05-04 09:15 | 46.70364 | 5.56497 | 23941 ft | 420 kts | 327° |
| 2026-05-04 09:15 | 46.72922 | 5.54436 | 24033 ft | 419 kts | 327° |
| 2026-05-04 09:17 | 46.89539 | 5.34925 | 24056 ft | 372 kts | 285° |
| 2026-05-04 09:18 | 46.90441 | 5.31383 | 24071 ft | 372 kts | 285° |
| 2026-05-04 09:18 | 46.91381 | 5.27856 | 24066 ft | 374 kts | 289° |
| 2026-05-04 09:18 | 46.92703 | 5.24534 | 24060 ft | 382 kts | 301° |
| 2026-05-04 09:18 | 46.94472 | 5.21602 | 24055 ft | 389 kts | 312° |
| 2026-05-04 09:19 | 46.96486 | 5.18948 | 24052 ft | 390 kts | 313° |
| 2026-05-04 09:19 | 46.98502 | 5.16300 | 24050 ft | 390 kts | 313° |
| 2026-05-04 09:19 | 47.00520 | 5.13640 | 24050 ft | 390 kts | 313° |
| 2026-05-04 09:19 | 47.02534 | 5.10973 | 24047 ft | 390 kts | 313° |
| 2026-05-04 09:20 | 47.04517 | 5.08338 | 24047 ft | 390 kts | 313° |
| 2026-05-04 09:20 | 47.06554 | 5.05632 | 24043 ft | 390 kts | 313° |
| 2026-05-04 09:20 | 47.08566 | 5.02957 | 24049 ft | 390 kts | 313° |
| 2026-05-04 09:20 | 47.10547 | 5.00318 | 24048 ft | 390 kts | 313° |
| 2026-05-04 09:21 | 47.12558 | 4.97638 | 24051 ft | 390 kts | 313° |
| 2026-05-04 09:21 | 47.14566 | 4.94956 | 24051 ft | 390 kts | 313° |
| 2026-05-04 09:21 | 47.16573 | 4.92270 | 24072 ft | 390 kts | 313° |
| 2026-05-04 09:21 | 47.18580 | 4.89583 | 24067 ft | 391 kts | 313° |
| 2026-05-04 09:22 | 47.20591 | 4.86892 | 24060 ft | 391 kts | 313° |
| 2026-05-04 09:22 | 47.22600 | 4.84203 | 24057 ft | 390 kts | 313° |
| 2026-05-04 09:22 | 47.24607 | 4.81513 | 24055 ft | 390 kts | 313° |
| 2026-05-04 09:22 | 47.26612 | 4.78819 | 24049 ft | 390 kts | 313° |
| 2026-05-04 09:23 | 47.28615 | 4.76128 | 24046 ft | 390 kts | 313° |
| 2026-05-04 09:23 | 47.30624 | 4.73430 | 24039 ft | 390 kts | 313° |
| 2026-05-04 09:23 | 47.32628 | 4.70732 | 24033 ft | 390 kts | 313° |
| 2026-05-04 09:23 | 47.34630 | 4.68034 | 24022 ft | 390 kts | 313° |
| 2026-05-04 09:25 | 47.48666 | 4.49021 | 24031 ft | 390 kts | 313° |
| 2026-05-04 09:25 | 47.50663 | 4.46310 | 24019 ft | 389 kts | 313° |
| 2026-05-04 09:26 | 47.52655 | 4.43598 | 24009 ft | 389 kts | 313° |
| 2026-05-04 09:26 | 47.54648 | 4.40883 | 24001 ft | 390 kts | 313° |
| 2026-05-04 09:26 | 47.56643 | 4.38162 | 23997 ft | 390 kts | 313° |
| 2026-05-04 09:26 | 47.58638 | 4.35434 | 23995 ft | 391 kts | 313° |
| 2026-05-04 09:27 | 47.60631 | 4.32705 | 23995 ft | 391 kts | 313° |
| 2026-05-04 09:27 | 47.62630 | 4.29971 | 23995 ft | 391 kts | 313° |
| 2026-05-04 09:27 | 47.64605 | 4.27198 | 23992 ft | 389 kts | 308° |
| 2026-05-04 09:27 | 47.66278 | 4.24087 | 23992 ft | 384 kts | 299° |
| 2026-05-04 09:28 | 47.67765 | 4.20797 | 23989 ft | 384 kts | 299° |
| 2026-05-04 09:28 | 47.69253 | 4.17516 | 24005 ft | 384 kts | 299° |
| 2026-05-04 09:28 | 47.70743 | 4.14241 | 24003 ft | 384 kts | 299° |
| 2026-05-04 09:28 | 47.72240 | 4.10955 | 24002 ft | 384 kts | 299° |
| 2026-05-04 09:29 | 47.73736 | 4.07665 | 23996 ft | 383 kts | 300° |
| 2026-05-04 09:29 | 47.75229 | 4.04382 | 23992 ft | 384 kts | 300° |
| 2026-05-04 09:29 | 47.76719 | 4.01099 | 23988 ft | 384 kts | 299° |
| 2026-05-04 09:29 | 47.78205 | 3.97810 | 23986 ft | 384 kts | 299° |
| 2026-05-04 09:30 | 47.79708 | 3.94470 | 23982 ft | 392 kts | 299° |
| 2026-05-04 09:30 | 47.81222 | 3.91107 | 23528 ft | 390 kts | 299° |
| 2026-05-04 09:30 | 47.82732 | 3.87754 | 22974 ft | 388 kts | 300° |
| 2026-05-04 09:30 | 47.84228 | 3.84429 | 22476 ft | 385 kts | 300° |
| 2026-05-04 09:31 | 47.85712 | 3.81132 | 21997 ft | 382 kts | 300° |
| 2026-05-04 09:31 | 47.87185 | 3.77861 | 21540 ft | 378 kts | 300° |
| 2026-05-04 09:31 | 47.88640 | 3.74619 | 21092 ft | 375 kts | 300° |
| 2026-05-04 09:31 | 47.90083 | 3.71398 | 20657 ft | 372 kts | 299° |
| 2026-05-04 09:32 | 47.91511 | 3.68202 | 20241 ft | 369 kts | 299° |
| 2026-05-04 09:32 | 47.92928 | 3.65029 | 19816 ft | 366 kts | 299° |
| 2026-05-04 09:34 | 48.04001 | 3.45529 | 17451 ft | 338 kts | 310° |
| 2026-05-04 09:34 | 48.05612 | 3.43052 | 17074 ft | 336 kts | 311° |
| 2026-05-04 09:34 | 48.07237 | 3.40558 | 16706 ft | 333 kts | 311° |
| 2026-05-04 09:34 | 48.08850 | 3.38086 | 16363 ft | 331 kts | 312° |
| 2026-05-04 09:35 | 48.10453 | 3.35630 | 16012 ft | 329 kts | 312° |
| 2026-05-04 09:35 | 48.12046 | 3.33193 | 15658 ft | 327 kts | 312° |
| 2026-05-04 09:35 | 48.13636 | 3.30761 | 15323 ft | 326 kts | 312° |
| 2026-05-04 09:35 | 48.15213 | 3.28341 | 14968 ft | 324 kts | 312° |
| 2026-05-04 09:37 | 48.25860 | 3.11927 | 10913 ft | 302 kts | 313° |
| 2026-05-04 09:37 | 48.27310 | 3.09689 | 10450 ft | 295 kts | 313° |
| 2026-05-04 09:38 | 48.28740 | 3.07483 | 10168 ft | 294 kts | 313° |
| 2026-05-04 09:38 | 48.30167 | 3.05285 | 10001 ft | 294 kts | 313° |
| 2026-05-04 09:38 | 48.31585 | 3.03097 | 9996 ft | 292 kts | 313° |
| 2026-05-04 09:38 | 48.33004 | 3.00901 | 9996 ft | 293 kts | 313° |
| 2026-05-04 09:39 | 48.34426 | 2.98698 | 9996 ft | 294 kts | 313° |
| 2026-05-04 09:39 | 48.35854 | 2.96485 | 9997 ft | 295 kts | 313° |
| 2026-05-04 09:39 | 48.37282 | 2.94271 | 10000 ft | 295 kts | 313° |
| 2026-05-04 09:39 | 48.38707 | 2.92056 | 9998 ft | 295 kts | 313° |
| 2026-05-04 09:40 | 48.40131 | 2.89837 | 9999 ft | 295 kts | 313° |
| 2026-05-04 09:40 | 48.41552 | 2.87618 | 9998 ft | 294 kts | 313° |
| 2026-05-04 09:40 | 48.42969 | 2.85404 | 10000 ft | 293 kts | 313° |
| 2026-05-04 09:40 | 48.44331 | 2.83124 | 9997 ft | 293 kts | 304° |
| 2026-05-04 09:41 | 48.45280 | 2.80438 | 9995 ft | 291 kts | 288° |
| 2026-05-04 09:42 | 48.46264 | 2.59519 | 8000 ft | 280 kts | 273° |
| 2026-05-04 09:43 | 48.46416 | 2.56591 | 8003 ft | 281 kts | 274° |
| 2026-05-04 09:43 | 48.46571 | 2.53649 | 8007 ft | 282 kts | 274° |
| 2026-05-04 09:43 | 48.46723 | 2.50708 | 8004 ft | 282 kts | 274° |
| 2026-05-04 09:43 | 48.46872 | 2.47760 | 8000 ft | 282 kts | 274° |
| 2026-05-04 09:44 | 48.47016 | 2.44809 | 8003 ft | 282 kts | 274° |
| 2026-05-04 09:44 | 48.47159 | 2.41861 | 8001 ft | 282 kts | 274° |
| 2026-05-04 09:44 | 48.47299 | 2.38915 | 7977 ft | 283 kts | 274° |
| 2026-05-04 09:46 | 48.48243 | 2.18453 | 6992 ft | 277 kts | 274° |
| 2026-05-04 09:46 | 48.48375 | 2.15554 | 6982 ft | 278 kts | 274° |
| 2026-05-04 09:46 | 48.48504 | 2.12637 | 6601 ft | 281 kts | 274° |
| 2026-05-04 09:47 | 48.48636 | 2.09726 | 6299 ft | 282 kts | 274° |
| 2026-05-04 09:47 | 48.48769 | 2.06779 | 6062 ft | 280 kts | 274° |
| 2026-05-04 09:49 | 48.51047 | 1.90362 | 5987 ft | 208 kts | 345° |
| 2026-05-04 09:49 | 48.52438 | 1.90087 | 5996 ft | 199 kts | 359° |
| 2026-05-04 09:49 | 48.53817 | 1.90076 | 6022 ft | 197 kts | 2° |
| 2026-05-04 09:51 | 48.59582 | 1.96912 | 5003 ft | 191 kts | 62° |
| 2026-05-04 09:51 | 48.60218 | 1.98682 | 5006 ft | 192 kts | 63° |
| 2026-05-04 09:51 | 48.60855 | 2.00456 | 4904 ft | 192 kts | 63° |
| 2026-05-04 09:51 | 48.61490 | 2.02227 | 4687 ft | 191 kts | 63° |
| 2026-05-04 09:52 | 48.62123 | 2.03993 | 4429 ft | 191 kts | 63° |
| 2026-05-04 09:52 | 48.62753 | 2.05751 | 4178 ft | 190 kts | 63° |
| 2026-05-04 09:52 | 48.63380 | 2.07501 | 3927 ft | 189 kts | 63° |
| 2026-05-04 09:52 | 48.64004 | 2.09248 | 3668 ft | 188 kts | 63° |
| 2026-05-04 09:53 | 48.64625 | 2.10983 | 3424 ft | 187 kts | 63° |
| 2026-05-04 09:53 | 48.65242 | 2.12712 | 3173 ft | 186 kts | 63° |
| 2026-05-04 09:53 | 48.65851 | 2.14416 | 2920 ft | 181 kts | 63° |
| 2026-05-04 09:53 | 48.66431 | 2.16041 | 2683 ft | 170 kts | 63° |
| 2026-05-04 09:54 | 48.66985 | 2.17594 | 2456 ft | 166 kts | 63° |
| 2026-05-04 09:54 | 48.67530 | 2.19125 | 2234 ft | 165 kts | 63° |
| 2026-05-04 09:54 | 48.68075 | 2.20654 | 2022 ft | 165 kts | 63° |
| 2026-05-04 09:54 | 48.68619 | 2.22182 | 1796 ft | 165 kts | 63° |
| 2026-05-04 09:55 | 48.68978 | 2.23191 | 1640 ft | 164 kts | 63° |
| 2026-05-04 09:55 | 48.69625 | 2.25012 | 1370 ft | 163 kts | 63° |
| 2026-05-04 09:55 | 48.70157 | 2.26507 | 1138 ft | 158 kts | 61° |
| 2026-05-04 09:55 | 48.70659 | 2.27923 | 935 ft | 152 kts | 60° |
| 2026-05-04 09:56 | 48.71156 | 2.29321 | 739 ft | 150 kts | 61° |
| 2026-05-04 09:56 | 48.71646 | 2.30704 | 542 ft | 149 kts | 60° |
| 2026-05-04 09:56 | 48.72142 | 2.32096 | 355 ft | 147 kts | 60° |
| 2026-05-04 09:56 | 48.72614 | 2.33417 | 301 ft | 138 kts | 60° |
| 2026-05-04 09:57 | 48.73095 | 2.34772 | 541 ft | 162 kts | 60° |
| 2026-05-04 09:57 | 48.73676 | 2.36400 | 1034 ft | 194 kts | 61° |
| 2026-05-04 09:57 | 48.74346 | 2.38294 | 1365 ft | 213 kts | 62° |
| 2026-05-04 09:57 | 48.75037 | 2.40269 | 1488 ft | 211 kts | 62° |
| 2026-05-04 09:58 | 48.75754 | 2.42283 | 1759 ft | 223 kts | 62° |
| 2026-05-04 09:58 | 48.76506 | 2.44371 | 2047 ft | 226 kts | 62° |
| 2026-05-04 09:58 | 48.77218 | 2.46488 | 2327 ft | 225 kts | 73° |
| 2026-05-04 10:00 | 48.70128 | 2.47271 | 4007 ft | 232 kts | 222° |
| 2026-05-04 10:00 | 48.68952 | 2.45592 | 4008 ft | 232 kts | 222° |
| 2026-05-04 10:02 | 48.60480 | 2.33067 | 4009 ft | 264 kts | 238° |
| 2026-05-04 10:04 | 48.54601 | 2.15771 | 4008 ft | 265 kts | 242° |
| 2026-05-04 10:04 | 48.53762 | 2.13286 | 4005 ft | 266 kts | 242° |
| 2026-05-04 10:04 | 48.52907 | 2.10769 | 4003 ft | 266 kts | 242° |
| 2026-05-04 10:04 | 48.52066 | 2.08279 | 4004 ft | 266 kts | 242° |
| 2026-05-04 10:05 | 48.51235 | 2.05805 | 3998 ft | 259 kts | 242° |
| 2026-05-04 10:05 | 48.50445 | 2.03445 | 3996 ft | 245 kts | 242° |
| 2026-05-04 10:05 | 48.49718 | 2.01216 | 3995 ft | 230 kts | 248° |
| 2026-05-04 10:05 | 48.49572 | 1.98929 | 3993 ft | 215 kts | 283° |
| 2026-05-04 10:06 | 48.50265 | 1.97092 | 4010 ft | 199 kts | 320° |
| 2026-05-04 10:06 | 48.51516 | 1.96291 | 4016 ft | 194 kts | 354° |
| 2026-05-04 10:06 | 48.52864 | 1.96200 | 4011 ft | 194 kts | 1° |
| 2026-05-04 10:08 | 48.60284 | 1.98870 | 4006 ft | 189 kts | 62° |
| 2026-05-04 10:08 | 48.60911 | 2.00615 | 4009 ft | 189 kts | 63° |
| 2026-05-04 10:08 | 48.61539 | 2.02366 | 4007 ft | 189 kts | 63° |
| 2026-05-04 10:08 | 48.62166 | 2.04114 | 4007 ft | 189 kts | 63° |
| 2026-05-04 10:09 | 48.62793 | 2.05863 | 4004 ft | 189 kts | 63° |
| 2026-05-04 10:09 | 48.63421 | 2.07619 | 3863 ft | 190 kts | 63° |
| 2026-05-04 10:09 | 48.64042 | 2.09353 | 3653 ft | 183 kts | 63° |
| 2026-05-04 10:09 | 48.64627 | 2.10988 | 3416 ft | 172 kts | 63° |
| 2026-05-04 10:10 | 48.65187 | 2.12556 | 3191 ft | 167 kts | 63° |
| 2026-05-04 10:10 | 48.65736 | 2.14094 | 2969 ft | 165 kts | 63° |
| 2026-05-04 10:10 | 48.66280 | 2.15619 | 2759 ft | 164 kts | 63° |
| 2026-05-04 10:10 | 48.66819 | 2.17131 | 2534 ft | 163 kts | 63° |
| 2026-05-04 10:11 | 48.67358 | 2.18642 | 2306 ft | 164 kts | 63° |
| 2026-05-04 10:11 | 48.67893 | 2.20143 | 2085 ft | 160 kts | 63° |
| 2026-05-04 10:11 | 48.68412 | 2.21600 | 1873 ft | 155 kts | 63° |
| 2026-05-04 10:11 | 48.68916 | 2.23016 | 1662 ft | 151 kts | 64° |
| 2026-05-04 10:12 | 48.69407 | 2.24398 | 1458 ft | 148 kts | 64° |
| 2026-05-04 10:12 | 48.69893 | 2.25764 | 1260 ft | 146 kts | 62° |
| 2026-05-04 10:12 | 48.70369 | 2.27104 | 1060 ft | 143 kts | 61° |
| 2026-05-04 10:12 | 48.70837 | 2.28421 | 868 ft | 142 kts | 60° |
| 2026-05-04 10:13 | 48.71300 | 2.29728 | 684 ft | 140 kts | 60° |
| 2026-05-04 10:13 | 48.71762 | 2.31032 | 488 ft | 141 kts | 60° |
| 2026-05-04 10:13 | 48.72225 | 2.32334 | 318 ft | 139 kts | 60° |
| 2026-05-04 10:13 | 48.72629 | 2.33473 | 297 ft | 89 kts | 62° |
| 2026-05-04 10:14 | 48.72803 | 2.33969 | 300 ft | 38 kts | 62° |
| 2026-05-04 10:14 | 48.72926 | 2.34313 | 295 ft | 36 kts | 61° |
| 2026-05-04 10:16 | 48.72901 | 2.35433 | 293 ft | 3 kts | 82° |
| 2026-05-04 10:16 | 48.72905 | 2.35494 | 295 ft | 16 kts | 95° |
| 2026-05-04 10:16 | 48.72819 | 2.35576 | 295 ft | 10 kts | 165° |
| 2026-05-04 10:16 | 48.72762 | 2.35598 | 297 ft | 8 kts | 165° |
| 2026-05-04 10:17 | 48.72712 | 2.35617 | 296 ft | 7 kts | 166° |
| 2026-05-04 10:17 | 48.72658 | 2.35639 | 297 ft | 12 kts | 166° |
| 2026-05-04 10:19 | 48.72939 | 2.35527 | 297 ft | 3 kts | 67° |
| 2026-05-04 10:19 | 48.72936 | 2.35551 | 296 ft | 1 kts | 110° |
| 2026-05-04 10:19 | 48.72933 | 2.35561 | 299 ft | 1 kts | 115° |
| 2026-05-04 10:19 | 48.72932 | 2.35565 | 299 ft | 0 kts | 115° |
| 2026-05-04 10:20 | 48.72921 | 2.35598 | 294 ft | 8 kts | 117° |
| 2026-05-04 10:20 | 48.72904 | 2.35647 | 297 ft | 3 kts | 118° |
| 2026-05-04 10:20 | 48.72900 | 2.35658 | 295 ft | 1 kts | 118° |
| 2026-05-04 10:20 | 48.72899 | 2.35660 | 295 ft | 0 kts | 118° |